Briefing drone pour Portes-les-valence

Rechercher une autre localisation

Conditions de vol :


Nous sommes le : Samedi 16 octobre 2021
Il est 12:32 UTC (14:32 LT)

Lever de soleil : 05:30 UTC (07:30 LT)
Coucher de soleil : 17:20 UTC (19:20 LT)

Météo

L'essentiel des conditions de vol

VIGILANCE MÉTÉO FRANCE - Drôme (26)
Pas de vigilances particulieres
CARTES DES FRONTS
METAR de LFLU
LFLU 161230Z AUTO 35011KT CAVOK 17/09 Q1018

Date d'émission: 16/10/2021
Heure d'émission: 12:30 UTC
Vent: 350° pour 11 KT (20 km/h)
Visibilité horizontale: > 10 km
Plafond : Plafond et visibilité OK (CAVOK)
Température: 17 °C
Point de rosée: 9 °C
Humidité: 59%
Pression (QNH): 1018 hPa
Prévision 24h pour Valence (5 km)
Vent : 346° pour 1 KT (5 km/h)
Temperature Maxi: 12 °C
Temperature Min: 12 °C
Humidité : 73%
Condition : Ciel dégagé



Warning: count(): Parameter must be an array or an object that implements Countable in /homepages/6/d509196549/htdocs/droneoxygene/briefing.php on line 743
WEBCAM POUR PORTES-LES-VALENCE

Réglementation

Voler en sécurité

CARTES AERONAUTIQUE 1/500.000
CARTES VAC (LFLU)
SUP AIP




Chargement des AIP...
NOTAM (PORTES-LES-VALENCE + Terrain à proximité / FIR )




Chargement des NOTAMS...
CONTACT PREFECTURE 26
Drôme (26) : ddt-satem@drome.gouv.fr


Avertissement : Les données mises à disposition sont indicatives. Oxygène Drone ne pourra être tenu responsable de dégâts causés aux biens et aux personnes.